createdAt,value
2024-03-12T00:00:29.579Z,8.47
2024-03-12T00:01:29.487Z,8.39
2024-03-12T00:02:29.343Z,8.29
2024-03-12T00:03:29.298Z,8.21
2024-03-12T00:04:29.223Z,8.22
2024-03-12T00:05:29.295Z,8.14
2024-03-12T00:06:29.090Z,8.01
2024-03-12T00:07:28.915Z,7.93
2024-03-12T00:08:28.839Z,7.97
2024-03-12T00:09:28.773Z,7.88
2024-03-12T00:10:28.664Z,7.90
2024-03-12T00:11:28.656Z,7.78
2024-03-12T00:12:28.545Z,7.67
2024-03-12T00:13:28.405Z,7.59
2024-03-12T00:14:28.321Z,7.45
2024-03-12T00:15:28.272Z,7.34
2024-03-12T00:16:29.336Z,7.24
2024-03-12T00:17:28.141Z,7.05
2024-03-12T00:18:27.997Z,7.03
2024-03-12T00:19:27.894Z,7.16
2024-03-12T00:20:27.865Z,7.21
2024-03-12T00:21:27.773Z,7.13
2024-03-12T00:22:27.639Z,7.16
2024-03-12T00:23:27.549Z,7.01
2024-03-12T00:24:27.510Z,6.96
2024-03-12T00:25:27.384Z,6.98
2024-03-12T00:26:27.310Z,6.91
2024-03-12T00:27:27.234Z,6.94
2024-03-12T00:28:27.124Z,6.88
2024-03-12T00:29:27.041Z,6.94
2024-03-12T00:30:26.989Z,6.96
2024-03-12T00:31:27.218Z,7.08
2024-03-12T00:32:26.840Z,6.98
2024-03-12T00:33:26.720Z,6.99
2024-03-12T00:34:26.668Z,7.01
2024-03-12T00:35:26.527Z,6.94
2024-03-12T00:36:26.532Z,7.01
2024-03-12T00:37:26.359Z,6.98
2024-03-12T00:38:26.272Z,6.93
2024-03-12T00:39:26.224Z,6.86
2024-03-12T00:40:26.099Z,6.81
2024-03-12T00:41:26.016Z,6.93
2024-03-12T00:42:25.942Z,6.86
2024-03-12T00:43:25.847Z,6.93
2024-03-12T00:44:25.795Z,6.90
2024-03-12T00:45:25.692Z,6.90
2024-03-12T00:46:25.846Z,7.08
2024-03-12T00:47:25.540Z,7.31
2024-03-12T00:48:25.434Z,7.67
2024-03-12T00:49:25.326Z,7.75
2024-03-12T00:50:25.238Z,7.72
2024-03-12T00:51:25.176Z,8.00
2024-03-12T00:52:25.156Z,8.01
2024-03-12T00:53:24.986Z,8.01
2024-03-12T00:54:24.937Z,8.03
2024-03-12T00:55:24.986Z,8.06
2024-03-12T00:56:24.725Z,8.22
2024-03-12T00:57:24.697Z,8.22
2024-03-12T00:58:24.636Z,8.30
2024-03-12T00:59:24.478Z,8.29
2024-03-12T01:00:24.457Z,8.22
2024-03-12T01:01:24.438Z,8.24
2024-03-12T01:02:24.214Z,8.22
2024-03-12T01:03:24.165Z,8.17
2024-03-12T01:04:24.243Z,8.22
2024-03-12T01:05:23.958Z,8.43
2024-03-12T01:06:24.938Z,8.33
2024-03-12T01:07:23.789Z,8.32
2024-03-12T01:09:23.701Z,8.25
2024-03-12T01:10:23.559Z,8.29
2024-03-12T01:11:23.477Z,8.27
2024-03-12T01:12:23.440Z,8.32
2024-03-12T01:13:23.273Z,8.27
2024-03-12T01:14:23.190Z,8.24
2024-03-12T01:15:23.157Z,8.34
2024-03-12T01:16:23.017Z,8.50
2024-03-12T01:17:22.930Z,8.51
2024-03-12T01:18:22.887Z,8.54
2024-03-12T01:19:23.903Z,8.39
2024-03-12T01:20:23.020Z,8.51
2024-03-12T01:21:22.706Z,8.54
2024-03-12T01:22:22.539Z,8.76
2024-03-12T01:23:22.463Z,8.66
2024-03-12T01:25:22.521Z,8.73
2024-03-12T01:26:22.161Z,8.70
2024-03-12T01:27:22.110Z,8.69
2024-03-12T01:28:22.142Z,8.57
2024-03-12T01:29:21.908Z,8.58
2024-03-12T01:30:22.341Z,8.60
2024-03-12T01:31:21.748Z,8.55
2024-03-12T01:32:21.649Z,8.58
2024-03-12T01:33:21.619Z,8.58
2024-03-12T01:34:21.485Z,8.72
2024-03-12T01:35:22.379Z,8.62
2024-03-12T01:37:21.983Z,8.58
2024-03-12T01:41:21.803Z,8.57
2024-03-12T01:42:21.036Z,8.69
2024-03-12T01:43:20.762Z,8.80
2024-03-12T01:44:20.661Z,8.76
2024-03-12T01:46:20.461Z,8.84
2024-03-12T01:47:20.372Z,8.80
2024-03-12T01:48:20.286Z,8.82
2024-03-12T01:49:20.199Z,8.84
2024-03-12T01:50:20.121Z,8.85
2024-03-12T01:51:20.036Z,8.75
2024-03-12T01:52:19.952Z,8.76
2024-03-12T01:53:19.861Z,8.82
2024-03-12T01:54:19.775Z,8.80
2024-03-12T01:55:20.168Z,8.79
2024-03-12T01:56:19.606Z,8.84
2024-03-12T01:57:19.698Z,8.91
2024-03-12T01:58:19.445Z,8.94
2024-03-12T01:59:19.353Z,8.93
2024-03-12T02:00:19.268Z,8.88
2024-03-12T02:01:19.258Z,8.97
2024-03-12T02:02:19.096Z,8.97
2024-03-12T02:03:19.009Z,8.85
2024-03-12T02:04:18.927Z,8.82
2024-03-12T02:05:18.867Z,8.88
2024-03-12T02:08:18.832Z,8.88
2024-03-12T02:09:18.506Z,8.95
2024-03-12T02:10:18.417Z,8.97
2024-03-12T02:11:18.363Z,8.98
2024-03-12T02:12:18.248Z,8.91
2024-03-12T02:13:18.243Z,8.97
2024-03-12T02:14:18.077Z,8.90
2024-03-12T02:15:18.000Z,8.91
2024-03-12T02:16:18.454Z,8.88
2024-03-12T02:17:17.827Z,8.80
2024-03-12T02:18:17.773Z,8.85
2024-03-12T02:19:17.656Z,8.97
2024-03-12T02:20:17.573Z,8.93
2024-03-12T02:21:17.486Z,8.87
2024-03-12T02:22:17.404Z,8.84
2024-03-12T02:23:17.324Z,8.93
2024-03-12T02:24:17.240Z,8.84
2024-03-12T02:25:17.160Z,8.93
2024-03-12T02:26:17.066Z,8.93
2024-03-12T02:27:16.991Z,8.91
2024-03-12T02:28:16.928Z,8.87
2024-03-12T02:29:17.097Z,8.82
2024-03-12T02:30:16.787Z,8.82
2024-03-12T02:31:17.089Z,8.77
2024-03-12T02:32:16.657Z,8.77
2024-03-12T02:33:16.529Z,8.87
2024-03-12T02:34:16.389Z,8.87
2024-03-12T02:35:16.310Z,8.91
2024-03-12T02:36:16.230Z,8.88
2024-03-12T02:37:16.149Z,8.85
2024-03-12T02:38:16.050Z,8.82
2024-03-12T02:39:15.993Z,8.84
2024-03-12T02:40:17.046Z,8.70
2024-03-12T02:41:15.797Z,8.80
2024-03-12T02:42:15.720Z,8.76
2024-03-12T02:43:15.665Z,8.69
2024-03-12T02:44:15.542Z,8.66
2024-03-12T02:45:16.579Z,8.68
2024-03-12T02:47:15.489Z,8.72
2024-03-12T02:48:15.246Z,8.75
2024-03-12T02:49:15.319Z,8.76
2024-03-12T02:50:15.027Z,8.75
2024-03-12T02:52:14.902Z,8.79
2024-03-12T02:53:14.776Z,8.82
2024-03-12T02:54:14.895Z,8.84
2024-03-12T02:55:15.299Z,8.87
2024-03-12T02:56:14.735Z,8.82
2024-03-12T02:57:14.846Z,8.85
2024-03-12T02:59:14.487Z,8.84
2024-03-12T03:00:15.706Z,8.91
2024-03-12T03:01:14.203Z,8.85
2024-03-12T03:02:14.011Z,8.97
2024-03-12T03:03:13.930Z,8.94
2024-03-12T03:04:13.873Z,8.95
2024-03-12T03:05:13.829Z,9.00
2024-03-12T03:08:44.448Z,8.85
2024-03-12T03:09:44.298Z,8.82
2024-03-12T03:10:44.142Z,8.82
2024-03-12T03:11:44.053Z,8.84
2024-03-12T03:12:43.985Z,8.80
2024-03-12T03:13:43.889Z,8.84
2024-03-12T03:14:43.839Z,8.87
2024-03-12T03:15:43.730Z,8.73
2024-03-12T03:16:43.666Z,8.66
2024-03-12T03:17:44.134Z,8.69
2024-03-12T03:18:43.458Z,8.70
2024-03-12T03:19:43.368Z,8.75
2024-03-12T03:20:43.283Z,8.75
2024-03-12T03:21:43.312Z,8.69
2024-03-12T03:22:43.118Z,8.65
2024-03-12T03:23:43.025Z,8.66
2024-03-12T03:24:43.062Z,8.66
2024-03-12T03:25:42.923Z,8.68
2024-03-12T03:26:42.925Z,8.75
2024-03-12T03:28:35.197Z,8.70
2024-03-12T03:29:35.097Z,8.69
2024-03-12T03:30:35.055Z,8.79
2024-03-12T03:31:34.922Z,8.76
2024-03-12T03:32:34.903Z,8.69
2024-03-12T03:33:34.761Z,8.66
2024-03-12T03:34:34.731Z,8.66
2024-03-12T03:35:34.630Z,8.66
2024-03-12T03:36:34.596Z,8.72
2024-03-12T03:37:34.408Z,8.77
2024-03-12T03:38:34.328Z,8.68
2024-03-12T03:39:34.270Z,8.70
2024-03-12T03:40:34.156Z,8.79
2024-03-12T03:41:34.079Z,8.80
2024-03-12T03:42:34.053Z,8.85
2024-03-12T03:43:33.910Z,8.88
2024-03-12T03:44:33.824Z,8.90
2024-03-12T03:45:33.761Z,8.93
2024-03-12T03:46:33.651Z,8.87
2024-03-12T03:47:33.587Z,8.94
2024-03-12T03:48:33.543Z,9.03
2024-03-12T03:49:33.399Z,8.91
2024-03-12T03:50:33.311Z,8.85
2024-03-12T03:51:33.254Z,8.94
2024-03-12T03:52:33.158Z,8.87
2024-03-12T03:53:33.067Z,8.90
2024-03-12T03:54:33.035Z,8.95
2024-03-12T03:55:32.888Z,8.80
2024-03-12T03:56:32.808Z,8.95
2024-03-12T03:57:32.752Z,8.93
2024-03-12T03:58:32.835Z,8.85
2024-03-12T04:01:00.123Z,8.85
2024-03-12T04:02:00.032Z,8.76
2024-03-12T04:02:59.888Z,8.93
2024-03-12T04:03:59.901Z,8.94
2024-03-12T04:04:59.717Z,8.97
2024-03-12T04:05:59.631Z,8.94
2024-03-12T04:06:59.573Z,8.80
2024-03-12T04:07:59.462Z,9.02
2024-03-12T04:08:59.418Z,8.94
2024-03-12T04:09:59.328Z,8.97
2024-03-12T04:10:59.275Z,8.97
2024-03-12T04:11:59.143Z,8.98
2024-03-12T04:12:59.121Z,9.05
2024-03-12T04:13:58.953Z,9.00
2024-03-12T04:14:58.869Z,8.90
2024-03-12T04:15:58.804Z,9.02
2024-03-12T04:16:58.699Z,8.91
2024-03-12T04:17:58.683Z,8.95
2024-03-12T04:18:58.574Z,9.00
2024-03-12T04:19:58.501Z,8.95
2024-03-12T04:20:58.361Z,8.97
2024-03-12T04:21:58.321Z,9.03
2024-03-12T04:22:58.189Z,8.90
2024-03-12T04:23:58.108Z,8.98
2024-03-12T04:24:58.066Z,9.05
2024-03-12T04:25:57.948Z,8.98
2024-03-12T04:26:57.855Z,9.00
2024-03-12T04:27:57.803Z,8.95
2024-03-12T04:28:57.706Z,9.03
2024-03-12T04:32:23.225Z,9.00
2024-03-12T04:33:23.189Z,8.98
2024-03-12T04:36:48.750Z,8.94
2024-03-12T04:37:48.602Z,8.94
2024-03-12T04:38:48.511Z,8.87
2024-03-12T04:39:48.521Z,8.97
2024-03-12T04:40:48.343Z,9.02
2024-03-12T04:41:48.502Z,8.95
2024-03-12T04:42:48.189Z,8.93
2024-03-12T04:43:48.080Z,8.98
2024-03-12T04:44:47.998Z,8.98
2024-03-12T04:45:47.949Z,8.97
2024-03-12T04:46:48.192Z,8.98
2024-03-12T04:47:50.059Z,8.95
2024-03-12T04:48:47.943Z,8.97
2024-03-12T04:49:47.579Z,8.95
2024-03-12T04:50:47.492Z,8.95
2024-03-12T04:51:47.449Z,8.95
2024-03-12T04:52:47.363Z,8.84
2024-03-12T04:53:47.237Z,8.91
2024-03-12T04:54:47.187Z,8.97
2024-03-12T04:55:47.090Z,8.93
2024-03-12T04:56:46.999Z,8.93
2024-03-12T04:57:46.966Z,8.88
2024-03-12T04:58:46.815Z,8.84
2024-03-12T04:59:46.727Z,8.95
2024-03-12T05:00:46.892Z,8.97
2024-03-12T05:01:46.648Z,8.82
2024-03-12T05:02:46.622Z,8.97
2024-03-12T05:03:46.452Z,8.90
2024-03-12T05:04:46.351Z,8.80
2024-03-12T05:05:46.228Z,8.87
2024-03-12T05:11:04.990Z,8.79
2024-03-12T05:12:04.834Z,8.84
2024-03-12T05:13:05.133Z,8.91
2024-03-12T05:14:04.659Z,8.85
2024-03-12T05:15:04.571Z,8.95
2024-03-12T05:16:04.511Z,8.80
2024-03-12T05:17:04.408Z,8.84
2024-03-12T05:18:04.360Z,8.91
2024-03-12T05:19:04.354Z,8.80
2024-03-12T05:20:04.147Z,8.87
2024-03-12T05:21:04.083Z,8.94
2024-03-12T05:22:04.209Z,8.85
2024-03-12T05:23:03.892Z,8.93
2024-03-12T05:24:03.824Z,8.94
2024-03-12T05:25:03.825Z,8.93
2024-03-12T05:26:03.660Z,8.90
2024-03-12T05:27:04.836Z,8.90
2024-03-12T05:28:03.819Z,8.93
2024-03-12T05:29:03.389Z,8.85
2024-03-12T05:30:03.362Z,8.87
2024-03-12T05:31:03.313Z,8.91
2024-03-12T05:32:03.136Z,8.90
2024-03-12T05:33:03.108Z,8.87
2024-03-12T05:34:03.085Z,8.87
2024-03-12T05:35:02.883Z,8.93
2024-03-12T05:36:02.800Z,8.93
2024-03-12T05:37:03.499Z,8.82
2024-03-12T05:38:45.119Z,8.94
2024-03-12T05:39:45.195Z,8.90
2024-03-12T05:40:48.580Z,8.90
2024-03-12T05:41:44.864Z,8.90
2024-03-12T05:42:44.846Z,8.82
2024-03-12T05:43:45.675Z,8.90
2024-03-12T05:44:44.602Z,8.87
2024-03-12T05:45:44.604Z,8.91
2024-03-12T05:46:44.706Z,8.88
2024-03-12T05:47:44.467Z,8.84
2024-03-12T05:48:44.415Z,8.93
2024-03-12T05:49:44.209Z,8.94
2024-03-12T05:50:44.108Z,8.88
2024-03-12T05:51:44.027Z,8.90
2024-03-12T05:52:43.925Z,8.87
2024-03-12T05:53:43.856Z,8.90
2024-03-12T05:54:43.795Z,8.94
2024-03-12T05:55:43.674Z,8.85
2024-03-12T05:56:43.595Z,8.87
2024-03-12T05:57:43.530Z,8.93
2024-03-12T05:58:43.462Z,8.94
2024-03-12T05:59:43.343Z,8.91
2024-03-12T06:00:43.346Z,8.90
2024-03-12T06:01:43.324Z,8.88
2024-03-12T06:02:43.351Z,8.88
2024-03-12T06:03:43.053Z,8.90
2024-03-12T06:04:42.927Z,8.91
2024-03-12T06:05:42.832Z,8.93
2024-03-12T06:06:42.762Z,8.93
2024-03-12T06:07:42.683Z,8.93
2024-03-12T06:08:42.572Z,8.85
2024-03-12T06:09:42.513Z,8.91
2024-03-12T06:10:42.417Z,8.85
2024-03-12T06:11:42.364Z,8.93
2024-03-12T06:12:42.262Z,8.88
2024-03-12T06:13:42.156Z,8.94
2024-03-12T06:14:42.108Z,8.94
2024-03-12T06:15:42.230Z,8.87
2024-03-12T06:16:41.902Z,8.87
2024-03-12T06:17:41.840Z,8.91
2024-03-12T06:18:41.830Z,8.90
2024-03-12T06:19:41.646Z,8.90
2024-03-12T06:20:41.561Z,8.87
2024-03-12T06:21:41.500Z,8.80
2024-03-12T06:22:41.391Z,8.85
2024-03-12T06:23:41.347Z,8.85
2024-03-12T06:24:41.353Z,8.80
2024-03-12T06:25:41.142Z,8.91
2024-03-12T06:26:41.070Z,8.79
2024-03-12T06:27:41.005Z,8.88
2024-03-12T06:28:40.886Z,8.84
2024-03-12T06:29:40.803Z,8.94
2024-03-12T06:30:40.799Z,8.88
2024-03-12T06:31:40.641Z,8.98
2024-03-12T06:32:40.596Z,8.91
2024-03-12T06:33:40.490Z,8.90
2024-03-12T06:34:40.379Z,8.93
2024-03-12T06:35:40.293Z,8.91
2024-03-12T06:36:40.270Z,8.94
2024-03-12T06:37:40.127Z,8.88
2024-03-12T06:38:40.129Z,8.93
2024-03-12T06:39:40.047Z,8.90
2024-03-12T06:40:39.867Z,8.90
2024-03-12T06:41:39.808Z,8.84
2024-03-12T06:42:39.722Z,8.85
2024-03-12T06:43:39.618Z,8.90
2024-03-12T06:44:39.531Z,8.94
2024-03-12T06:45:39.450Z,8.93
2024-03-12T06:46:39.460Z,8.98
2024-03-12T06:47:39.471Z,8.97
2024-03-12T06:48:39.221Z,8.84
2024-03-12T06:49:39.110Z,8.88
2024-03-12T06:50:39.018Z,8.91
2024-03-12T06:51:39.009Z,8.82
2024-03-12T06:52:38.853Z,8.87
2024-03-12T06:53:38.770Z,8.95
2024-03-12T06:54:38.695Z,8.85
2024-03-12T06:55:38.602Z,8.85
2024-03-12T06:56:38.513Z,9.00
2024-03-12T06:57:38.445Z,8.93
2024-03-12T06:58:38.360Z,8.93
2024-03-12T06:59:38.269Z,8.95
2024-03-12T07:00:39.015Z,8.94
2024-03-12T07:01:38.106Z,8.97
2024-03-12T07:02:38.084Z,9.03
2024-03-12T07:03:37.944Z,8.93
2024-03-12T07:04:37.842Z,8.97
2024-03-12T07:05:37.864Z,8.95
2024-03-12T07:06:37.731Z,9.00
2024-03-12T07:07:37.584Z,8.94
2024-03-12T07:08:37.500Z,8.94
2024-03-12T07:09:37.430Z,8.98
2024-03-12T07:10:37.337Z,8.94
2024-03-12T07:11:37.247Z,8.91
2024-03-12T07:12:37.202Z,9.03
2024-03-12T07:13:37.084Z,8.87
2024-03-12T07:32:51.076Z,8.94
2024-03-12T07:33:50.849Z,8.94
2024-03-12T07:34:50.767Z,8.98
2024-03-12T07:35:50.666Z,8.94
2024-03-12T07:36:50.702Z,8.98
2024-03-12T07:37:50.503Z,8.94
2024-03-12T07:38:50.424Z,9.05
2024-03-12T07:39:50.581Z,9.00
2024-03-12T07:40:50.256Z,9.02
2024-03-12T07:41:50.166Z,8.95
2024-03-12T07:42:50.104Z,8.98
2024-03-12T07:43:49.992Z,8.98
2024-03-12T07:44:49.908Z,9.10
2024-03-12T07:45:49.861Z,9.17
2024-03-12T07:46:49.744Z,9.03
2024-03-12T07:47:49.755Z,9.03
2024-03-12T07:48:49.705Z,9.12
2024-03-12T07:49:49.486Z,9.20
2024-03-12T07:50:49.413Z,9.27
2024-03-12T07:51:49.353Z,9.25
2024-03-12T07:52:49.272Z,9.35
2024-03-12T07:53:49.205Z,9.40
2024-03-12T07:54:49.121Z,9.43
2024-03-12T07:55:48.996Z,9.40
2024-03-12T07:56:48.900Z,9.55
2024-03-12T07:57:48.849Z,9.45
2024-03-12T07:58:48.731Z,9.46
2024-03-12T07:59:48.649Z,9.45
2024-03-12T08:00:48.606Z,9.42
2024-03-12T08:01:48.487Z,9.40
2024-03-12T08:02:48.396Z,9.42
2024-03-12T08:03:48.334Z,9.38
2024-03-12T08:04:48.267Z,9.38
2024-03-12T08:05:48.148Z,9.47
2024-03-12T08:06:48.077Z,9.53
2024-03-12T08:07:47.978Z,9.43
2024-03-12T08:08:47.895Z,9.40
2024-03-12T08:09:47.877Z,9.46
2024-03-12T08:10:47.737Z,9.47
2024-03-12T08:11:47.644Z,9.45
2024-03-12T08:12:47.639Z,9.42
2024-03-12T08:13:47.476Z,9.46
2024-03-12T08:14:47.386Z,9.42
2024-03-12T08:15:47.322Z,9.43
2024-03-12T08:16:47.222Z,9.52
2024-03-12T08:17:48.317Z,9.43
2024-03-12T08:18:47.120Z,9.40
2024-03-12T08:19:46.987Z,9.45
2024-03-12T08:20:47.270Z,9.37
2024-03-12T08:21:46.831Z,9.38
2024-03-12T08:22:46.737Z,9.43
2024-03-12T08:23:46.639Z,9.40
2024-03-12T08:24:46.595Z,9.49
2024-03-12T08:25:55.595Z,9.53
2024-03-12T08:26:46.387Z,9.47
2024-03-12T08:27:46.345Z,9.55
2024-03-12T08:28:46.221Z,9.52
2024-03-12T08:29:46.139Z,9.58
2024-03-12T08:30:46.112Z,9.55
2024-03-12T08:31:51.711Z,9.50
2024-03-12T08:32:46.345Z,9.46
2024-03-12T08:34:28.455Z,9.40
2024-03-12T08:35:28.208Z,9.38
2024-03-12T08:36:28.240Z,9.52
2024-03-12T08:37:28.034Z,9.61
2024-03-12T08:39:25.483Z,9.79
2024-03-12T08:40:25.522Z,9.72
2024-03-12T08:41:25.325Z,9.64
2024-03-12T08:42:25.237Z,9.71
2024-03-12T08:43:26.138Z,9.74
2024-03-12T08:44:25.400Z,9.82
2024-03-12T08:45:25.302Z,9.90
2024-03-12T08:46:24.897Z,9.86
2024-03-12T08:47:24.851Z,9.78
2024-03-12T08:48:24.746Z,9.79
2024-03-12T08:49:24.726Z,9.82
2024-03-12T08:50:24.634Z,9.82
2024-03-12T08:51:24.482Z,9.85
2024-03-12T08:52:24.523Z,9.75
2024-03-12T08:53:24.318Z,9.71
2024-03-12T08:54:24.246Z,9.70
2024-03-12T08:55:24.178Z,9.70
2024-03-12T08:56:24.070Z,9.82
2024-03-12T08:57:23.987Z,9.74
2024-03-12T08:58:23.926Z,9.71
2024-03-12T08:59:23.824Z,9.70
2024-03-12T09:00:23.736Z,9.86
2024-03-12T09:01:23.711Z,9.96
2024-03-12T09:02:23.575Z,9.98
2024-03-12T09:03:23.760Z,9.80
2024-03-12T09:04:23.418Z,9.92
2024-03-12T09:05:23.320Z,9.80
2024-03-12T09:06:23.250Z,9.78
2024-03-12T09:07:23.287Z,9.82
2024-03-12T09:08:23.118Z,9.82
2024-03-12T09:09:23.263Z,9.83
2024-03-12T09:10:23.023Z,9.86
2024-03-12T09:11:22.893Z,9.89
2024-03-12T09:12:22.738Z,9.89
2024-03-12T09:13:22.659Z,9.82
2024-03-12T09:14:22.580Z,9.83
2024-03-12T09:15:25.163Z,9.86
2024-03-12T09:16:22.491Z,9.70
2024-03-12T09:17:22.324Z,9.78
2024-03-12T09:18:25.969Z,9.82
2024-03-12T09:19:22.188Z,9.93
2024-03-12T09:20:22.079Z,9.96
2024-03-12T09:21:21.993Z,9.92
2024-03-12T09:22:21.933Z,9.96
2024-03-12T09:23:21.864Z,9.82
2024-03-12T09:25:21.733Z,9.82
2024-03-12T09:26:21.581Z,9.83
2024-03-12T09:27:21.502Z,10.01
2024-03-12T09:28:21.476Z,10.00
2024-03-12T09:29:21.329Z,9.98
2024-03-12T09:30:21.268Z,9.96
2024-03-12T09:31:21.204Z,9.98
2024-03-12T09:32:21.242Z,10.08
2024-03-12T09:33:21.002Z,10.06
2024-03-12T09:34:20.946Z,10.13
2024-03-12T09:35:20.855Z,10.18
2024-03-12T09:36:20.757Z,10.23
2024-03-12T09:37:20.777Z,10.19
2024-03-12T09:38:20.594Z,10.13
2024-03-12T09:39:20.529Z,10.19
2024-03-12T09:40:20.488Z,10.23
2024-03-12T09:41:20.384Z,10.16
2024-03-12T09:42:20.254Z,10.16
2024-03-12T09:43:20.191Z,10.11
2024-03-12T09:44:20.089Z,10.04
2024-03-12T09:45:20.006Z,10.08
2024-03-12T09:46:19.988Z,10.11
2024-03-12T09:47:19.842Z,10.21
2024-03-12T09:48:19.761Z,10.36
2024-03-12T09:49:19.714Z,10.23
2024-03-12T09:50:19.600Z,10.18
2024-03-12T09:51:19.509Z,10.13
2024-03-12T09:52:19.454Z,10.18
2024-03-12T09:53:19.359Z,10.21
2024-03-12T09:54:19.268Z,10.13
2024-03-12T09:55:19.332Z,10.11
2024-03-12T09:56:19.441Z,10.03
2024-03-12T09:57:19.152Z,10.07
2024-03-12T09:58:18.989Z,10.15
2024-03-12T09:59:18.851Z,10.03
2024-03-12T10:00:18.767Z,10.07
2024-03-12T10:01:18.718Z,10.06
2024-03-12T10:02:18.664Z,9.98
2024-03-12T10:03:18.516Z,9.96
2024-03-12T10:04:18.459Z,9.96
2024-03-12T10:05:18.352Z,9.92
2024-03-12T10:06:18.273Z,9.96
2024-03-12T10:07:18.299Z,9.88
2024-03-12T10:08:18.390Z,9.79
2024-03-12T10:09:18.026Z,9.79
2024-03-12T10:10:18.105Z,9.85
2024-03-12T10:11:17.882Z,9.83
2024-03-12T10:12:17.774Z,9.78
2024-03-12T10:13:18.312Z,9.71
2024-03-12T10:14:17.606Z,9.70
2024-03-12T10:15:17.518Z,9.72
2024-03-12T10:16:18.018Z,9.80
2024-03-12T10:17:17.354Z,9.70
2024-03-12T10:18:17.420Z,9.75
2024-03-12T10:19:17.313Z,9.71
2024-03-12T10:20:17.500Z,9.75
2024-03-12T10:21:17.019Z,9.71
2024-03-12T10:22:16.978Z,9.65
2024-03-12T10:23:17.104Z,9.65
2024-03-12T10:24:16.898Z,9.56
2024-03-12T10:25:16.791Z,9.61
2024-03-12T10:26:16.606Z,9.67
2024-03-12T10:27:16.532Z,9.68
2024-03-12T10:28:16.501Z,9.78
2024-03-12T10:29:16.400Z,9.75
2024-03-12T10:30:16.272Z,9.70
2024-03-12T10:31:16.633Z,9.74
2024-03-12T10:32:16.106Z,9.68
2024-03-12T10:33:16.071Z,9.71
2024-03-12T10:34:15.999Z,9.75
2024-03-12T10:35:15.856Z,9.80
2024-03-12T10:36:15.785Z,9.82
2024-03-12T10:37:15.759Z,9.78
2024-03-12T10:38:15.638Z,9.86
2024-03-12T10:39:15.525Z,9.83
2024-03-12T10:40:15.505Z,9.82
2024-03-12T10:41:15.378Z,9.88
2024-03-12T10:42:15.283Z,9.80
2024-03-12T10:43:15.421Z,9.79
2024-03-12T10:44:15.147Z,9.83
2024-03-12T10:45:15.171Z,9.82
2024-03-12T10:46:15.005Z,9.86
2024-03-12T10:47:14.863Z,9.82
2024-03-12T10:48:14.811Z,9.80
2024-03-12T10:49:14.965Z,9.86
2024-03-12T10:50:14.610Z,9.89
2024-03-12T10:51:14.996Z,9.86
2024-03-12T10:52:14.643Z,9.97
2024-03-12T10:53:14.381Z,9.96
2024-03-12T10:54:14.279Z,9.86
2024-03-12T10:55:14.373Z,9.90
2024-03-12T10:56:16.034Z,9.92
2024-03-12T10:57:14.037Z,9.90
2024-03-12T10:58:13.961Z,9.89
2024-03-12T10:59:13.877Z,9.79
2024-03-12T11:00:13.935Z,9.88
2024-03-12T11:01:13.911Z,9.80
2024-03-12T11:02:13.694Z,9.93
2024-03-12T11:03:13.533Z,9.92
2024-03-12T11:04:13.545Z,9.86
2024-03-12T11:05:13.398Z,9.90
2024-03-12T11:06:13.296Z,9.89
2024-03-12T11:07:13.255Z,9.92
2024-03-12T11:08:13.122Z,9.90
2024-03-12T11:09:13.075Z,10.00
2024-03-12T11:10:13.057Z,10.00
2024-03-12T11:11:12.978Z,9.85
2024-03-12T11:12:12.790Z,9.92
2024-03-12T11:13:13.019Z,9.92
2024-03-12T11:14:12.624Z,9.92
2024-03-12T11:15:12.543Z,9.98
2024-03-12T11:16:12.707Z,10.04
2024-03-12T11:17:12.413Z,10.04
2024-03-12T11:18:12.335Z,10.01
2024-03-12T11:19:12.279Z,10.21
2024-03-12T11:20:12.134Z,10.10
2024-03-12T11:21:12.043Z,9.98
2024-03-12T11:22:12.198Z,9.86
2024-03-12T11:23:11.909Z,9.92
2024-03-12T11:24:11.798Z,9.89
2024-03-12T11:25:11.823Z,9.86
2024-03-12T11:26:11.630Z,10.07
2024-03-12T11:27:11.547Z,10.10
2024-03-12T11:28:11.488Z,10.15
2024-03-12T11:29:11.394Z,10.25
2024-03-12T11:30:11.414Z,10.29
2024-03-12T11:31:11.394Z,10.29
2024-03-12T11:32:12.672Z,10.28
2024-03-12T11:33:11.149Z,10.34
2024-03-12T11:34:11.066Z,10.25
2024-03-12T11:35:10.890Z,10.33
2024-03-12T11:36:10.894Z,10.33
2024-03-12T11:37:10.858Z,10.31
2024-03-12T11:38:12.604Z,10.31
2024-03-12T11:39:10.586Z,10.41
2024-03-12T11:40:10.627Z,10.31
2024-03-12T11:41:10.423Z,10.33
2024-03-12T11:42:10.318Z,10.22
2024-03-12T11:43:10.295Z,10.40
2024-03-12T11:44:12.501Z,10.31
2024-03-12T11:45:10.065Z,10.26
2024-03-12T11:46:10.224Z,10.26
2024-03-12T11:47:09.905Z,10.31
2024-03-12T11:48:09.859Z,10.26
2024-03-12T11:49:09.854Z,10.15
2024-03-12T11:50:09.863Z,10.15
2024-03-12T11:51:09.777Z,10.15
2024-03-12T11:52:09.578Z,10.16
2024-03-12T11:53:09.408Z,10.15
2024-03-12T11:54:09.334Z,10.15
2024-03-12T11:55:09.740Z,10.13
2024-03-12T11:56:10.359Z,10.04
2024-03-12T11:57:09.079Z,10.04
2024-03-12T11:58:09.072Z,9.88
2024-03-12T11:59:15.146Z,9.85
2024-03-12T12:00:08.838Z,9.97
2024-03-12T12:01:08.808Z,9.93
2024-03-12T12:02:08.757Z,9.96
2024-03-12T12:03:08.584Z,10.01
2024-03-12T12:04:08.708Z,10.06
2024-03-12T12:05:08.611Z,10.18
2024-03-12T12:06:08.535Z,10.16
2024-03-12T12:07:08.295Z,10.23
2024-03-12T12:08:08.177Z,10.40
2024-03-12T12:09:08.086Z,10.47
2024-03-12T12:10:08.025Z,10.58
2024-03-12T12:11:07.951Z,10.59
2024-03-12T12:12:07.942Z,10.65
2024-03-12T12:13:07.830Z,10.73
2024-03-12T12:14:07.731Z,10.85
2024-03-12T12:15:07.593Z,10.84
2024-03-12T12:16:07.564Z,10.83
2024-03-12T12:17:07.515Z,10.83
2024-03-12T12:18:07.587Z,10.84
2024-03-12T12:19:07.950Z,10.81
2024-03-12T12:20:07.187Z,10.83
2024-03-12T12:21:07.150Z,10.88
2024-03-12T12:22:07.018Z,10.78
2024-03-12T12:23:07.009Z,10.73
2024-03-12T12:24:06.859Z,10.78
2024-03-12T12:25:06.824Z,10.75
2024-03-12T12:26:06.692Z,10.66
2024-03-12T12:27:06.685Z,10.62
2024-03-12T12:28:06.632Z,10.62
2024-03-12T12:29:06.480Z,10.59
2024-03-12T12:30:06.386Z,10.62
2024-03-12T12:31:06.334Z,10.59
2024-03-12T12:32:06.209Z,10.62
2024-03-12T12:33:06.200Z,10.77
2024-03-12T12:34:06.083Z,10.87
2024-03-12T12:35:05.977Z,10.83
2024-03-12T12:36:05.878Z,10.92
2024-03-12T12:37:05.969Z,11.08
2024-03-12T12:38:05.725Z,11.32
2024-03-12T12:39:05.975Z,11.29
2024-03-12T12:40:05.578Z,11.31
2024-03-12T12:41:05.471Z,11.35
2024-03-12T12:42:05.397Z,11.26
2024-03-12T12:43:05.337Z,11.31
2024-03-12T12:44:05.229Z,11.35
2024-03-12T12:45:05.148Z,11.53
2024-03-12T12:46:05.136Z,11.46
2024-03-12T12:47:05.006Z,11.36
2024-03-12T12:48:04.921Z,11.35
2024-03-12T12:49:04.836Z,11.43
2024-03-12T12:50:04.743Z,11.38
2024-03-12T12:51:04.729Z,11.46
2024-03-12T12:52:04.613Z,11.38
2024-03-12T12:53:04.544Z,11.56
2024-03-12T12:54:04.415Z,11.53
2024-03-12T12:55:04.372Z,11.50
2024-03-12T12:56:04.260Z,11.68
2024-03-12T12:57:04.176Z,11.41
2024-03-12T12:58:04.178Z,11.38
2024-03-12T12:59:04.011Z,11.26
2024-03-12T13:00:03.928Z,11.28
2024-03-12T13:01:03.957Z,11.14
2024-03-12T13:02:04.006Z,11.16
2024-03-12T13:03:03.685Z,11.26
2024-03-12T13:04:03.638Z,11.35
2024-03-12T13:05:03.522Z,11.35
2024-03-12T13:06:03.439Z,11.31
2024-03-12T13:07:03.446Z,11.28
2024-03-12T13:08:03.277Z,11.35
2024-03-12T13:09:03.237Z,11.28
2024-03-12T13:10:03.204Z,11.29
2024-03-12T13:11:03.045Z,11.51
2024-03-12T13:12:03.313Z,11.60
2024-03-12T13:13:02.894Z,11.81
2024-03-12T13:14:02.790Z,12.09
2024-03-12T13:15:02.713Z,12.41
2024-03-12T13:16:02.824Z,12.49
2024-03-12T13:17:02.554Z,12.28
2024-03-12T13:18:02.502Z,12.19
2024-03-12T13:19:02.703Z,12.15
2024-03-12T13:20:02.311Z,11.97
2024-03-12T13:21:02.227Z,11.76
2024-03-12T13:22:04.015Z,11.83
2024-03-12T13:23:02.121Z,11.81
2024-03-12T13:24:01.993Z,11.83
2024-03-12T13:25:01.957Z,11.79
2024-03-12T13:26:01.830Z,11.72
2024-03-12T13:27:01.750Z,11.83
2024-03-12T13:28:01.751Z,12.03
2024-03-12T13:29:01.584Z,12.12
2024-03-12T13:30:03.276Z,12.15
2024-03-12T13:31:01.478Z,12.09
2024-03-12T13:32:01.372Z,12.12
2024-03-12T13:33:01.317Z,12.13
2024-03-12T13:34:01.203Z,12.26
2024-03-12T13:35:01.107Z,12.21
2024-03-12T13:36:01.035Z,12.09
2024-03-12T13:37:00.981Z,11.98
2024-03-12T13:38:00.866Z,12.16
2024-03-12T13:39:00.785Z,12.27
2024-03-12T13:40:00.754Z,12.09
2024-03-12T13:41:00.714Z,11.97
2024-03-12T13:42:00.570Z,12.09
2024-03-12T13:43:00.516Z,12.12
2024-03-12T13:44:00.416Z,12.11
2024-03-12T13:45:00.367Z,11.87
2024-03-12T13:46:00.305Z,12.05
2024-03-12T13:47:00.162Z,12.13
2024-03-12T13:48:00.189Z,11.86
2024-03-12T13:49:00.136Z,11.90
2024-03-12T13:49:59.921Z,11.89
2024-03-12T13:50:59.833Z,11.71
2024-03-12T13:51:59.830Z,11.67
2024-03-12T13:52:59.670Z,11.60
2024-03-12T13:53:59.601Z,11.36
2024-03-12T13:54:59.544Z,11.28
2024-03-12T13:55:59.531Z,11.31
2024-03-12T13:56:59.396Z,11.39
2024-03-12T13:57:59.320Z,11.35
2024-03-12T13:58:59.186Z,11.31